createdAt,value
2022-07-29T04:10:48.709Z,100345.81
2022-07-29T04:13:51.850Z,100345.81
2022-07-29T04:16:54.362Z,100347.09
2022-07-29T04:19:57.426Z,100352.78
2022-07-29T04:22:59.989Z,100353.78
2022-07-29T04:26:02.802Z,100347.53
2022-07-29T04:29:05.486Z,100355.03
2022-07-29T04:32:08.274Z,100351.63
2022-07-29T04:35:10.712Z,100354.75
2022-07-29T04:38:15.789Z,100353.91
2022-07-29T04:41:20.853Z,100344.94
2022-07-29T04:44:39.662Z,100348.03
2022-07-29T04:47:42.787Z,100339.06
2022-07-29T04:50:45.374Z,100342.25
2022-07-29T04:53:48.249Z,100349.00
2022-07-29T04:56:50.694Z,100354.50
2022-07-29T04:59:53.528Z,100362.28
2022-07-29T05:02:56.056Z,100354.28
2022-07-29T05:06:01.679Z,100356.38
2022-07-29T05:09:04.219Z,100358.56
2022-07-29T05:12:08.280Z,100357.56
2022-07-29T05:15:11.161Z,100349.94
2022-07-29T05:18:13.992Z,100355.81
2022-07-29T05:21:16.485Z,100357.31
2022-07-29T05:24:19.753Z,100358.34
2022-07-29T05:27:22.561Z,100346.00
2022-07-29T05:30:25.785Z,100357.56
2022-07-29T05:33:35.606Z,100351.88
2022-07-29T05:36:39.625Z,100350.16
2022-07-29T05:39:48.782Z,100348.09
2022-07-29T05:42:52.150Z,100360.19
2022-07-29T05:45:54.839Z,100363.53
2022-07-29T05:48:57.703Z,100358.03
2022-07-29T05:52:00.276Z,100359.88
2022-07-29T05:55:05.337Z,100354.66
2022-07-29T05:58:08.020Z,100357.56
2022-07-29T06:01:10.800Z,100356.34
2022-07-29T06:04:14.212Z,100360.66
2022-07-29T06:07:17.247Z,100355.13
2022-07-29T06:10:20.265Z,100360.47
2022-07-29T06:40:49.558Z,100369.41
2022-07-29T06:43:55.198Z,100371.84
2022-07-29T06:50:28.305Z,100368.53
2022-07-29T07:16:17.047Z,100361.84
2022-07-29T08:24:15.835Z,100335.84
2022-07-29T08:42:12.895Z,100340.34
2022-07-29T08:45:16.296Z,100328.53
2022-07-29T08:48:21.549Z,100335.84
2022-07-29T08:51:26.477Z,100339.75
2022-07-29T08:54:30.238Z,100327.28
2022-07-29T08:57:35.982Z,100323.56
2022-07-29T09:00:44.546Z,100325.94
2022-07-29T09:03:50.580Z,100322.00
2022-07-29T09:06:58.092Z,100316.50
2022-07-29T09:10:02.164Z,100314.56
2022-07-29T09:13:04.840Z,100313.16
2022-07-29T09:16:09.499Z,100318.47
2022-07-29T09:19:31.067Z,100308.91
2022-07-29T09:22:50.146Z,100307.81
2022-07-29T09:25:52.784Z,100307.47
2022-07-29T09:28:55.550Z,100306.47
2022-07-29T09:31:58.152Z,100308.09
2022-07-29T09:35:21.004Z,100292.62
2022-07-29T09:38:23.517Z,100295.16
2022-07-29T09:41:28.083Z,100296.66
2022-07-29T09:44:50.180Z,100286.44
2022-07-29T09:47:53.071Z,100284.03
2022-07-29T09:50:55.964Z,100286.59
2022-07-29T09:53:58.858Z,100286.59
2022-07-29T09:57:01.484Z,100280.03
2022-07-29T10:00:09.112Z,100279.41
2022-07-29T10:03:16.640Z,100269.38
2022-07-29T10:06:19.647Z,100274.44
2022-07-29T10:36:25.120Z,100244.81
2022-07-29T10:39:41.825Z,100242.88
2022-07-29T10:42:47.574Z,100239.00
2022-07-29T10:45:57.448Z,100232.06
2022-07-29T10:49:15.950Z,100240.34
2022-07-29T10:52:20.530Z,100238.06
2022-07-29T10:55:32.243Z,100239.12
2022-07-29T10:58:35.224Z,100228.88
2022-07-29T11:01:39.075Z,100226.03
2022-07-29T11:04:44.872Z,100222.69
2022-07-29T11:08:21.003Z,100219.78
2022-07-29T11:11:29.766Z,100221.09
2022-07-29T11:14:51.434Z,100214.22
2022-07-29T11:17:54.669Z,100219.87
2022-07-29T11:32:29.552Z,100195.38
2022-07-29T11:35:38.297Z,100198.47
2022-07-29T11:38:42.690Z,100185.59
2022-07-29T11:41:45.777Z,100183.28
2022-07-29T11:45:43.713Z,100190.53
2022-07-29T11:48:44.430Z,100183.47
2022-07-29T11:51:53.716Z,100177.53
2022-07-29T11:55:00.903Z,100172.66
2022-07-29T11:58:13.171Z,100180.81
2022-07-29T12:01:18.444Z,100172.78
2022-07-29T12:04:21.266Z,100164.50
2022-07-29T12:07:35.159Z,100166.47
2022-07-29T12:10:39.603Z,100167.94
2022-07-29T12:13:42.083Z,100168.59
2022-07-29T12:16:44.897Z,100159.91
2022-07-29T12:19:47.406Z,100155.13
2022-07-29T12:30:08.117Z,100139.31
2022-07-29T12:36:57.154Z,100136.91
2022-07-29T12:40:00.290Z,100126.25
2022-07-29T12:43:11.887Z,100117.16
2022-07-29T12:50:13.465Z,100107.31
2022-07-29T12:53:17.660Z,100101.47
2022-07-29T12:56:41.610Z,100108.53
2022-07-29T12:59:43.389Z,100099.31
2022-07-29T13:02:57.047Z,100116.25
2022-07-29T13:05:59.906Z,100102.13
2022-07-29T13:09:10.650Z,100098.37
2022-07-29T13:12:14.872Z,100092.38
2022-07-29T13:15:17.825Z,100083.81
2022-07-29T13:18:29.041Z,100081.50
2022-07-29T13:21:31.942Z,100085.56
2022-07-29T13:24:50.631Z,100088.16
2022-07-29T13:27:55.400Z,100078.38
2022-07-29T13:30:57.996Z,100072.59
2022-07-29T13:34:00.793Z,100078.13
2022-07-29T13:37:03.543Z,100073.69
2022-07-29T13:40:09.520Z,100072.28
2022-07-29T13:43:13.006Z,100063.16
2022-07-29T13:46:15.902Z,100057.37
2022-07-29T13:49:18.515Z,100063.22
2022-07-29T13:52:22.014Z,100053.75
2022-07-29T13:55:25.198Z,100052.78
2022-07-29T13:58:28.070Z,100059.81
2022-07-29T14:01:31.842Z,100047.94
2022-07-29T14:04:34.902Z,100042.75
2022-07-29T14:07:39.684Z,100036.81
2022-07-29T14:10:42.525Z,100040.16
2022-07-29T14:13:45.350Z,100035.31
2022-07-29T14:16:52.066Z,100038.22
2022-07-29T14:20:00.767Z,100035.03
2022-07-29T14:23:03.588Z,100029.50
2022-07-29T14:26:08.753Z,100031.19
2022-07-29T14:29:15.939Z,100029.16
2022-07-29T14:32:18.583Z,100023.41
2022-07-29T14:35:21.524Z,100025.66
2022-07-29T14:38:24.715Z,100016.47
2022-07-29T14:41:29.781Z,100009.06
2022-07-29T14:44:32.487Z,100003.19
2022-07-29T14:47:35.439Z,100002.87
2022-07-29T14:50:38.507Z,100005.19
2022-07-29T14:53:41.326Z,100006.63
2022-07-29T14:56:46.377Z,100001.22
2022-07-29T14:59:49.802Z,99997.78
2022-07-29T15:03:01.833Z,99980.97
2022-07-29T15:06:05.600Z,99974.84
2022-07-29T15:09:08.866Z,99968.16
2022-07-29T15:12:12.260Z,99976.97
2022-07-29T15:15:14.712Z,99983.28
2022-07-29T15:18:25.779Z,99976.75
2022-07-29T15:21:28.699Z,99974.00
